Time;durP1;ratioP1;P1;durP2;ratioP2;P2;SDS_P1;SDS_P2;PMS_P1;PMS_P2;Temp;Humidity;BMP_temperature;BMP_pressure;BME280_temperature;BME280_humidity;BME280_pressure;Samples;Min_cycle;Max_cycle;Signal;HPM_P1;HPM_P2
2023/06/26 00:00:15;;;;;;;7.93;6.35;;;22.70;99.90;;;;;;5042990;28;20041;-75
2023/06/26 00:02:41;;;;;;;6.85;5.80;;;22.60;99.90;;;;;;5024846;28;20144;-75
2023/06/26 00:05:07;;;;;;;8.88;6.18;;;22.60;99.90;;;;;;5025627;28;20041;-74
2023/06/26 00:07:36;;;;;;;8.15;6.13;;;22.60;99.90;;;;;;5042858;28;20045;-75
2023/06/26 00:10:03;;;;;;;6.30;5.38;;;22.60;99.90;;;;;;5042648;28;20041;-75
2023/06/26 00:12:29;;;;;;;8.60;6.55;;;22.50;99.90;;;;;;5043571;28;20056;-75
2023/06/26 00:14:55;;;;;;;7.65;5.65;;;22.50;99.90;;;;;;5021408;28;20310;-74
2023/06/26 00:17:21;;;;;;;7.45;6.00;;;22.50;99.90;;;;;;5022038;28;20085;-74
2023/06/26 00:19:47;;;;;;;10.05;6.15;;;22.50;99.90;;;;;;5038560;28;20411;-75
2023/06/26 00:22:13;;;;;;;10.00;6.57;;;22.50;99.90;;;;;;5041818;28;20033;-75
2023/06/26 00:24:38;;;;;;;8.80;6.43;;;22.40;99.90;;;;;;5043189;28;20095;-74
2023/06/26 00:27:04;;;;;;;8.63;6.38;;;22.40;99.90;;;;;;5042602;28;20087;-75
2023/06/26 00:29:30;;;;;;;11.80;7.13;;;22.40;99.90;;;;;;5021844;28;20396;-76
2023/06/26 00:31:55;;;;;;;8.10;6.38;;;22.30;99.90;;;;;;5025703;28;20055;-75
2023/06/26 00:34:21;;;;;;;11.15;7.05;;;22.30;99.90;;;;;;5025270;28;20045;-75
2023/06/26 00:36:47;;;;;;;8.90;6.72;;;22.30;99.90;;;;;;5026162;28;20048;-74
2023/06/26 00:39:12;;;;;;;9.05;6.10;;;22.30;99.90;;;;;;5046121;28;20041;-74
2023/06/26 00:41:38;;;;;;;7.32;6.30;;;22.30;99.90;;;;;;5029300;28;20122;-74
2023/06/26 00:44:04;;;;;;;9.43;7.05;;;22.30;99.90;;;;;;5045906;28;20049;-74
2023/06/26 00:46:31;;;;;;;8.27;6.63;;;22.20;99.90;;;;;;5046113;28;20033;-75
2023/06/26 00:48:59;;;;;;;7.95;5.93;;;22.20;99.90;;;;;;5025756;28;20120;-74
2023/06/26 00:51:26;;;;;;;10.05;6.35;;;22.20;99.90;;;;;;5011604;28;20040;-74
2023/06/26 00:53:52;;;;;;;13.80;6.75;;;22.20;99.90;;;;;;5025438;28;20480;-74
2023/06/26 00:56:19;;;;;;;8.98;6.90;;;22.10;99.90;;;;;;5027612;28;20045;-75
2023/06/26 00:58:45;;;;;;;9.90;6.35;;;22.10;99.90;;;;;;5046142;28;20040;-74
2023/06/26 01:01:15;;;;;;;8.50;6.53;;;22.10;99.90;;;;;;5042290;28;20492;-75
2023/06/26 01:03:42;;;;;;;9.13;7.30;;;22.10;99.90;;;;;;5024863;28;20088;-75
2023/06/26 01:06:11;;;;;;;8.38;6.93;;;22.10;99.90;;;;;;5024996;28;20571;-75
2023/06/26 01:08:38;;;;;;;8.15;6.60;;;22.10;99.90;;;;;;5027742;28;20049;-75
2023/06/26 01:11:04;;;;;;;8.20;6.55;;;22.10;99.90;;;;;;5027962;28;20084;-75
2023/06/26 01:13:30;;;;;;;9.32;6.97;;;22.10;99.90;;;;;;5028555;28;20087;-75
2023/06/26 01:15:59;;;;;;;8.85;6.68;;;22.00;99.90;;;;;;5046448;28;20095;-74
2023/06/26 01:18:26;;;;;;;10.10;6.95;;;22.00;99.90;;;;;;5028344;28;20530;-74
2023/06/26 01:20:53;;;;;;;10.52;7.05;;;22.00;99.90;;;;;;5044886;28;20060;-74
2023/06/26 01:23:36;;;;;;;10.13;7.32;;;22.00;99.90;;;;;;5011433;28;20045;-74
2023/06/26 01:26:20;;;;;;;8.15;6.30;;;21.90;99.90;;;;;;5011331;28;20045;-74
2023/06/26 01:28:48;;;;;;;8.55;7.20;;;21.90;99.90;;;;;;5010839;28;20087;-75
2023/06/26 01:31:15;;;;;;;8.85;6.82;;;21.90;99.90;;;;;;5045356;28;20112;-75
2023/06/26 01:33:41;;;;;;;9.20;6.35;;;21.80;99.90;;;;;;5027783;28;20053;-74
2023/06/26 01:36:07;;;;;;;10.48;7.50;;;21.80;99.90;;;;;;5026419;28;20610;-74
2023/06/26 01:38:34;;;;;;;11.88;7.65;;;21.80;99.90;;;;;;5043472;28;20033;-75
2023/06/26 01:41:00;;;;;;;10.50;7.10;;;21.70;99.90;;;;;;5025384;28;20041;-75
2023/06/26 01:43:25;;;;;;;9.30;7.35;;;21.70;99.90;;;;;;5025983;28;20091;-74
2023/06/26 01:45:53;;;;;;;8.18;7.15;;;21.80;99.90;;;;;;5021184;28;20041;-74
2023/06/26 01:48:24;;;;;;;10.20;7.47;;;21.70;99.90;;;;;;5028046;28;20127;-75
2023/06/26 01:50:52;;;;;;;10.15;7.88;;;21.70;99.90;;;;;;5026087;28;20052;-75
2023/06/26 01:53:21;;;;;;;10.02;6.68;;;21.70;99.90;;;;;;5044578;28;20116;-75
2023/06/26 01:55:54;;;;;;;10.23;6.82;;;21.70;99.90;;;;;;5044962;28;20041;-75
2023/06/26 01:58:22;;;;;;;11.75;7.38;;;21.60;99.90;;;;;;5023884;28;20084;-75
2023/06/26 02:00:48;;;;;;;8.70;6.78;;;21.60;99.90;;;;;;5039541;28;20029;-75
2023/06/26 02:03:14;;;;;;;11.35;7.00;;;21.60;99.90;;;;;;5026943;28;20099;-74
2023/06/26 02:05:40;;;;;;;8.70;6.15;;;21.60;99.90;;;;;;5040666;28;20119;-74
2023/06/26 02:08:08;;;;;;;7.50;6.50;;;21.60;99.90;;;;;;5044761;28;20485;-74
2023/06/26 02:10:34;;;;;;;9.98;6.70;;;21.60;99.90;;;;;;5010691;28;20128;-75
2023/06/26 02:13:00;;;;;;;9.77;6.90;;;21.60;99.90;;;;;;5027144;28;20116;-75
2023/06/26 02:15:26;;;;;;;9.30;6.50;;;21.60;99.90;;;;;;5044972;28;20128;-74
2023/06/26 02:17:51;;;;;;;7.97;6.25;;;21.70;99.90;;;;;;5044482;28;20120;-75
2023/06/26 02:20:17;;;;;;;10.63;7.40;;;21.70;99.90;;;;;;5025728;28;20139;-74
2023/06/26 02:22:43;;;;;;;11.15;7.43;;;21.80;99.90;;;;;;5044587;28;20480;-74
2023/06/26 02:25:13;;;;;;;8.60;6.88;;;21.80;99.90;;;;;;5043751;28;20040;-74
2023/06/26 02:27:38;;;;;;;10.93;6.68;;;21.80;99.90;;;;;;5023129;28;20560;-75
2023/06/26 02:30:05;;;;;;;10.13;6.22;;;21.90;99.90;;;;;;5024646;28;20120;-74
2023/06/26 02:32:30;;;;;;;8.35;6.68;;;21.90;99.90;;;;;;5023149;28;20045;-75
2023/06/26 02:34:56;;;;;;;8.30;5.95;;;21.90;99.90;;;;;;5023675;28;20797;-74
2023/06/26 02:37:21;;;;;;;8.93;6.15;;;21.90;99.90;;;;;;5037407;28;20163;-74
2023/06/26 02:39:47;;;;;;;10.50;6.45;;;21.90;99.90;;;;;;5027052;28;20063;-74
2023/06/26 02:42:13;;;;;;;10.35;5.72;;;21.90;99.90;;;;;;5044001;28;20076;-74
2023/06/26 02:44:38;;;;;;;10.23;5.57;;;21.90;99.90;;;;;;5044310;28;20497;-75
2023/06/26 02:47:04;;;;;;;7.50;5.22;;;21.80;99.90;;;;;;5026476;28;20033;-74
2023/06/26 02:49:30;;;;;;;7.88;5.28;;;21.80;99.90;;;;;;5044314;28;20380;-75
2023/06/26 02:51:55;;;;;;;8.13;5.28;;;21.80;99.90;;;;;;5043461;28;20037;-74
2023/06/26 02:54:21;;;;;;;11.10;5.70;;;21.80;99.90;;;;;;5044365;28;20041;-74
2023/06/26 02:56:46;;;;;;;8.48;5.00;;;21.80;99.90;;;;;;5044091;28;20458;-74
2023/06/26 02:59:12;;;;;;;10.25;5.38;;;21.70;99.90;;;;;;5025272;28;20051;-74
2023/06/26 03:01:38;;;;;;;6.07;3.90;;;21.70;99.90;;;;;;5036734;28;20435;-75
2023/06/26 03:04:04;;;;;;;9.65;4.22;;;21.70;99.90;;;;;;5007037;28;20053;-74
2023/06/26 03:06:30;;;;;;;9.02;4.40;;;21.70;99.90;;;;;;5042649;28;20048;-75
2023/06/26 03:08:55;;;;;;;7.82;4.93;;;21.60;99.90;;;;;;5044459;28;20415;-74
2023/06/26 03:11:21;;;;;;;7.53;4.65;;;21.60;99.90;;;;;;5021760;28;20120;-74
2023/06/26 03:13:47;;;;;;;9.80;5.47;;;21.50;99.90;;;;;;5025594;28;20392;-74
2023/06/26 03:16:12;;;;;;;8.77;5.22;;;21.50;99.90;;;;;;5043065;28;20484;-75
2023/06/26 03:18:38;;;;;;;8.68;5.05;;;21.50;99.90;;;;;;5026554;28;20051;-74
2023/06/26 03:21:04;;;;;;;10.65;5.32;;;21.50;99.90;;;;;;5024896;28;20041;-74
2023/06/26 03:23:30;;;;;;;9.07;5.05;;;21.40;99.90;;;;;;5025300;28;20560;-76
2023/06/26 03:25:55;;;;;;;10.38;6.32;;;21.40;99.90;;;;;;5044323;28;20041;-74
2023/06/26 03:28:21;;;;;;;13.90;5.38;;;21.40;99.90;;;;;;5022584;28;20079;-74
2023/06/26 03:30:46;;;;;;;9.15;5.75;;;21.40;99.90;;;;;;5042939;28;20033;-74
2023/06/26 03:33:12;;;;;;;10.77;5.43;;;21.40;99.90;;;;;;5025865;28;20049;-75
2023/06/26 03:35:38;;;;;;;9.32;5.55;;;21.40;99.90;;;;;;5025191;28;20036;-74
2023/06/26 03:38:05;;;;;;;10.32;5.28;;;21.40;99.90;;;;;;5025159;28;20449;-74
2023/06/26 03:40:30;;;;;;;8.88;5.53;;;21.40;99.90;;;;;;5043475;28;20083;-75
2023/06/26 03:42:56;;;;;;;8.88;5.63;;;21.30;99.90;;;;;;5044092;28;20045;-74
2023/06/26 03:45:21;;;;;;;11.20;6.00;;;21.30;99.90;;;;;;5042889;28;20056;-74
2023/06/26 03:47:49;;;;;;;10.90;6.55;;;21.20;99.90;;;;;;5025627;28;20052;-74
2023/06/26 03:50:18;;;;;;;14.80;7.65;;;21.10;99.90;;;;;;5021505;28;20103;-74
2023/06/26 03:52:44;;;;;;;10.55;6.93;;;21.00;99.90;;;;;;5035649;28;20033;-74
2023/06/26 03:55:10;;;;;;;15.23;6.25;;;21.00;99.90;;;;;;5043168;28;20048;-75
2023/06/26 03:57:35;;;;;;;15.45;6.65;;;20.90;99.90;;;;;;5043203;28;20679;-74
2023/06/26 04:00:05;;;;;;;10.68;6.05;;;20.90;99.90;;;;;;5042896;28;20542;-75
2023/06/26 04:02:31;;;;;;;18.50;6.25;;;20.80;99.90;;;;;;5036639;28;20049;-75
2023/06/26 04:04:56;;;;;;;12.60;6.05;;;20.80;99.90;;;;;;5023131;28;20116;-75
2023/06/26 04:07:22;;;;;;;11.93;6.25;;;20.80;99.90;;;;;;5029765;28;20154;-74
2023/06/26 04:09:47;;;;;;;9.10;5.95;;;20.70;99.90;;;;;;5025249;28;20469;-75
2023/06/26 04:12:14;;;;;;;10.75;5.65;;;20.70;99.90;;;;;;5045614;28;20064;-74
2023/06/26 04:14:39;;;;;;;14.07;7.15;;;20.70;99.90;;;;;;5046558;28;20041;-74
2023/06/26 04:17:05;;;;;;;7.03;5.35;;;20.60;99.90;;;;;;5046639;28;20048;-75
2023/06/26 04:19:30;;;;;;;13.95;5.75;;;20.60;99.90;;;;;;5047346;28;20037;-75
2023/06/26 04:21:56;;;;;;;10.98;5.28;;;20.50;99.90;;;;;;5045551;28;20045;-75
2023/06/26 04:24:22;;;;;;;11.02;5.20;;;20.50;99.90;;;;;;5046221;28;20045;-74
2023/06/26 04:26:48;;;;;;;14.07;4.95;;;20.40;99.90;;;;;;5046926;28;20480;-74
2023/06/26 04:29:14;;;;;;;10.00;3.60;;;20.40;99.90;;;;;;5046541;28;20044;-74
2023/06/26 04:31:39;;;;;;;8.88;3.70;;;20.30;99.90;;;;;;5028818;28;20045;-75
2023/06/26 04:34:05;;;;;;;7.50;4.22;;;20.20;99.90;;;;;;5046641;28;20040;-75
2023/06/26 04:36:31;;;;;;;6.15;3.50;;;20.20;99.90;;;;;;5045797;28;20501;-75
2023/06/26 04:38:58;;;;;;;5.65;2.97;;;20.20;99.90;;;;;;5047084;28;20051;-74
2023/06/26 04:41:24;;;;;;;7.82;2.92;;;20.20;99.90;;;;;;5046093;28;20508;-74
2023/06/26 04:43:50;;;;;;;11.13;3.80;;;20.10;99.90;;;;;;5046665;28;20045;-75
2023/06/26 04:46:15;;;;;;;8.30;2.88;;;20.10;99.90;;;;;;5045806;28;20060;-75
2023/06/26 04:48:41;;;;;;;10.68;2.65;;;20.00;99.90;;;;;;5039691;28;20045;-75
2023/06/26 04:51:07;;;;;;;6.72;3.17;;;20.00;99.90;;;;;;5026402;28;20131;-75
2023/06/26 04:53:32;;;;;;;5.50;2.70;;;20.00;99.90;;;;;;5017870;28;20487;-76
2023/06/26 04:55:58;;;;;;;6.15;2.30;;;20.00;99.90;;;;;;5040824;28;20080;-75
2023/06/26 04:58:23;;;;;;;7.57;2.33;;;20.00;99.90;;;;;;5025458;28;20475;-75
2023/06/26 05:00:49;;;;;;;3.85;1.50;;;20.00;99.90;;;;;;5035250;28;20132;-76
2023/06/26 05:03:16;;;;;;;7.45;2.53;;;19.90;99.90;;;;;;5016976;28;20057;-75
2023/06/26 05:05:42;;;;;;;9.77;2.42;;;19.90;99.90;;;;;;5042023;28;20120;-75
2023/06/26 05:08:16;;;;;;;5.45;2.20;;;19.90;99.90;;;;;;5042617;28;20069;-76
2023/06/26 05:10:41;;;;;;;9.60;2.38;;;19.80;99.90;;;;;;5023428;28;20485;-75
2023/06/26 05:13:07;;;;;;;3.53;1.52;;;19.80;99.90;;;;;;5026137;28;20120;-75
2023/06/26 05:15:33;;;;;;;5.75;1.70;;;19.80;99.90;;;;;;5042355;28;20043;-75
2023/06/26 05:17:58;;;;;;;6.88;2.05;;;19.80;99.90;;;;;;5043659;28;20079;-75
2023/06/26 05:20:24;;;;;;;7.65;2.00;;;19.80;99.90;;;;;;5037278;28;20427;-75
2023/06/26 05:22:50;;;;;;;6.93;1.95;;;19.80;99.90;;;;;;5044707;28;20094;-75
2023/06/26 05:25:18;;;;;;;7.15;2.22;;;19.80;99.90;;;;;;5044827;28;20051;-75
2023/06/26 05:27:44;;;;;;;8.27;1.52;;;19.70;99.90;;;;;;5045191;28;20037;-75
2023/06/26 05:30:10;;;;;;;8.52;2.50;;;19.70;99.90;;;;;;5034921;28;20046;-75
2023/06/26 05:32:39;;;;;;;5.40;2.60;;;19.70;99.90;;;;;;5044941;28;20044;-75
2023/06/26 05:35:06;;;;;;;5.80;1.70;;;19.70;99.90;;;;;;5033050;28;20045;-75
2023/06/26 05:37:33;;;;;;;6.63;2.80;;;19.70;99.90;;;;;;5008278;28;20125;-75
2023/06/26 05:39:59;;;;;;;9.43;2.08;;;19.70;99.90;;;;;;5038189;28;20051;-74
2023/06/26 05:42:26;;;;;;;5.43;1.70;;;19.70;99.90;;;;;;5041883;28;20037;-73
2023/06/26 05:44:51;;;;;;;5.57;1.73;;;19.70;99.90;;;;;;5038287;28;20049;-73
2023/06/26 05:47:17;;;;;;;6.68;1.42;;;19.70;99.90;;;;;;5022623;28;20040;-73
2023/06/26 05:49:42;;;;;;;2.55;1.35;;;19.80;99.90;;;;;;5024710;28;20116;-73
2023/06/26 05:52:09;;;;;;;4.05;1.40;;;19.80;99.90;;;;;;5026199;28;20056;-73
2023/06/26 05:54:35;;;;;;;3.00;1.48;;;19.80;99.90;;;;;;5044005;28;20021;-74
2023/06/26 05:57:01;;;;;;;3.33;1.60;;;19.80;99.90;;;;;;5043832;28;20047;-75
2023/06/26 05:59:27;;;;;;;3.08;1.17;;;19.80;99.90;;;;;;5032880;28;20033;-73
2023/06/26 06:01:53;;;;;;;3.42;1.30;;;19.80;99.90;;;;;;5035279;28;20033;-74
2023/06/26 06:04:19;;;;;;;3.35;1.08;;;19.80;99.90;;;;;;5017557;28;20060;-74
2023/06/26 06:06:44;;;;;;;4.30;1.52;;;19.80;99.90;;;;;;5024642;28;20334;-74
2023/06/26 06:09:10;;;;;;;3.67;1.48;;;19.80;99.90;;;;;;5009626;28;20048;-74
2023/06/26 06:11:37;;;;;;;6.18;1.92;;;19.80;99.90;;;;;;5026188;28;20056;-74
2023/06/26 06:14:02;;;;;;;3.45;1.10;;;19.80;99.90;;;;;;5044611;28;20080;-74
2023/06/26 06:16:29;;;;;;;4.20;1.75;;;19.90;99.90;;;;;;5045148;28;20091;-74
2023/06/26 06:18:55;;;;;;;5.05;2.03;;;19.90;99.90;;;;;;5044614;28;20041;-74
2023/06/26 06:21:20;;;;;;;8.20;1.20;;;19.90;99.90;;;;;;5043027;28;20048;-74
2023/06/26 06:23:46;;;;;;;7.50;1.92;;;19.90;99.90;;;;;;5038364;28;20056;-74
2023/06/26 06:26:12;;;;;;;2.45;0.90;;;19.90;99.90;;;;;;5041250;28;20037;-75
2023/06/26 06:28:39;;;;;;;3.13;0.80;;;19.90;99.90;;;;;;5044162;28;20368;-74
2023/06/26 06:31:04;;;;;;;4.18;1.20;;;19.90;99.90;;;;;;5037031;28;20056;-75
2023/06/26 06:33:30;;;;;;;5.13;1.48;;;19.90;99.90;;;;;;5008401;28;20052;-76
2023/06/26 06:35:56;;;;;;;4.05;1.00;;;19.90;99.90;;;;;;5035441;28;20044;-75
2023/06/26 06:38:21;;;;;;;4.40;1.10;;;19.90;99.90;;;;;;5043326;28;20041;-75
2023/06/26 06:40:47;;;;;;;3.65;1.08;;;19.90;99.90;;;;;;5038987;28;20383;-73
2023/06/26 06:43:13;;;;;;;9.38;1.23;;;19.90;99.90;;;;;;5043583;28;20094;-75
2023/06/26 06:45:38;;;;;;;5.72;1.15;;;19.90;99.90;;;;;;5040412;28;20430;-74
2023/06/26 06:48:05;;;;;;;4.22;0.70;;;20.00;99.90;;;;;;5043207;28;20036;-75
2023/06/26 06:50:31;;;;;;;2.10;1.10;;;20.00;99.90;;;;;;5025008;28;20491;-75
2023/06/26 06:52:56;;;;;;;1.40;0.75;;;20.00;99.90;;;;;;5043495;28;20055;-75
2023/06/26 06:55:23;;;;;;;1.58;0.80;;;20.00;99.90;;;;;;5025416;28;20044;-75
2023/06/26 06:57:50;;;;;;;2.45;0.75;;;20.00;99.90;;;;;;5043559;28;20066;-74
2023/06/26 07:00:16;;;;;;;3.05;1.10;;;20.00;99.90;;;;;;5042951;28;20120;-74
2023/06/26 07:02:45;;;;;;;2.33;0.82;;;19.90;99.90;;;;;;5043034;28;20438;-74
2023/06/26 07:05:12;;;;;;;3.65;1.02;;;19.90;99.90;;;;;;5024647;28;20041;-74
2023/06/26 07:07:38;;;;;;;1.15;0.90;;;20.00;99.90;;;;;;5041965;28;20497;-75
2023/06/26 07:10:07;;;;;;;4.00;1.30;;;19.90;99.90;;;;;;5042732;28;20048;-75
2023/06/26 07:12:33;;;;;;;4.18;1.58;;;20.00;99.90;;;;;;5043365;28;20079;-75
2023/06/26 07:15:00;;;;;;;3.65;1.10;;;20.00;99.90;;;;;;5043409;28;20393;-75
2023/06/26 07:17:26;;;;;;;4.13;1.10;;;20.00;99.90;;;;;;5043792;28;20189;-75
2023/06/26 07:19:52;;;;;;;3.03;1.13;;;20.00;99.90;;;;;;5024593;28;20052;-75
2023/06/26 07:22:21;;;;;;;3.25;0.98;;;20.00;99.90;;;;;;5042131;28;20033;-75
2023/06/26 07:24:47;;;;;;;4.50;1.13;;;20.10;99.90;;;;;;5005522;28;20084;-75
2023/06/26 07:27:14;;;;;;;2.67;0.98;;;20.10;99.90;;;;;;5005481;28;20037;-75
2023/06/26 07:29:40;;;;;;;3.25;1.23;;;20.20;99.90;;;;;;5021815;28;20053;-75
2023/06/26 07:32:05;;;;;;;4.47;1.67;;;20.20;99.90;;;;;;5040524;28;20044;-75
2023/06/26 07:34:31;;;;;;;1.85;1.00;;;20.20;99.90;;;;;;5020573;28;20067;-75
2023/06/26 07:36:57;;;;;;;2.05;1.17;;;20.10;99.90;;;;;;5037651;28;20075;-75
2023/06/26 07:39:22;;;;;;;4.35;1.17;;;20.10;99.90;;;;;;5023989;28;20503;-75
2023/06/26 07:41:48;;;;;;;1.75;1.02;;;20.10;99.90;;;;;;5041607;28;20048;-75
2023/06/26 07:44:14;;;;;;;4.32;1.38;;;20.10;99.90;;;;;;5042462;28;20155;-75
2023/06/26 07:46:39;;;;;;;1.02;0.93;;;20.10;99.90;;;;;;5025569;28;20573;-76
2023/06/26 07:49:05;;;;;;;2.70;1.25;;;20.20;99.90;;;;;;5024481;28;20213;-75
2023/06/26 07:51:31;;;;;;;2.90;1.30;;;20.30;99.90;;;;;;5023045;28;20073;-77
2023/06/26 07:53:56;;;;;;;3.60;1.60;;;20.30;99.90;;;;;;5044313;28;20083;-74
2023/06/26 07:56:22;;;;;;;5.40;1.38;;;20.30;99.90;;;;;;5027970;28;20461;-75
2023/06/26 07:58:47;;;;;;;4.25;1.30;;;20.30;99.90;;;;;;5012886;28;20047;-75
2023/06/26 08:01:13;;;;;;;4.45;1.00;;;20.40;99.90;;;;;;5000369;28;20956;-76
2023/06/26 08:03:39;;;;;;;4.72;1.75;;;20.30;99.90;;;;;;4998083;28;20084;-75
2023/06/26 08:06:05;;;;;;;3.90;1.20;;;20.30;99.90;;;;;;5016292;28;20055;-77
2023/06/26 08:08:31;;;;;;;4.88;1.10;;;20.30;99.90;;;;;;5045856;28;20052;-78
2023/06/26 08:10:56;;;;;;;5.10;1.10;;;20.30;99.90;;;;;;5043622;28;20348;-76
2023/06/26 08:13:22;;;;;;;1.63;1.13;;;20.40;99.90;;;;;;5009043;28;20049;-76
2023/06/26 08:15:48;;;;;;;5.30;1.17;;;20.30;99.90;;;;;;5027692;28;20033;-77
2023/06/26 08:18:13;;;;;;;3.53;1.10;;;20.30;99.90;;;;;;5032550;28;20068;-76
2023/06/26 08:20:39;;;;;;;2.13;1.08;;;20.30;99.90;;;;;;5030140;28;20484;-76
2023/06/26 08:23:05;;;;;;;0.80;0.80;;;20.30;99.90;;;;;;5045625;28;20503;-76
2023/06/26 08:25:30;;;;;;;4.90;1.10;;;20.30;99.90;;;;;;5046398;28;20049;-76
2023/06/26 08:27:56;;;;;;;3.30;1.30;;;20.30;99.90;;;;;;5009119;28;20102;-76
2023/06/26 08:30:22;;;;;;;2.78;1.45;;;20.30;99.90;;;;;;5009784;28;20170;-76
2023/06/26 08:32:48;;;;;;;4.35;1.40;;;20.20;99.90;;;;;;5045731;28;20040;-76
2023/06/26 08:35:13;;;;;;;4.90;1.70;;;20.20;99.90;;;;;;5009357;28;20049;-76
2023/06/26 08:37:39;;;;;;;6.28;2.22;;;20.20;99.90;;;;;;5006864;28;20054;-75
2023/06/26 08:40:07;;;;;;;6.03;1.60;;;20.30;99.90;;;;;;4992232;28;20037;-76
2023/06/26 08:42:33;;;;;;;6.57;1.48;;;20.30;99.90;;;;;;5008415;28;20056;-77
2023/06/26 08:44:59;;;;;;;4.22;1.50;;;20.30;99.90;;;;;;5026347;28;20125;-77
2023/06/26 08:47:26;;;;;;;2.65;1.52;;;20.30;99.90;;;;;;5020364;28;20405;-77
2023/06/26 08:50:08;;;;;;;3.80;2.17;;;20.30;99.90;;;;;;5007132;28;20222;-77
2023/06/26 08:52:40;;;;;;;2.92;1.58;;;20.40;99.90;;;;;;5038324;28;20229;-77
2023/06/26 08:55:08;;;;;;;;;;;20.40;99.90;;;;;;5011519;28;20115;-77
2023/06/26 08:57:36;;;;;;;4.40;1.48;;;20.30;99.90;;;;;;5033284;28;19917;-77
2023/06/26 09:00:03;;;;;;;3.75;1.40;;;20.30;99.90;;;;;;5021621;28;20049;-77
2023/06/26 09:02:29;;;;;;;3.70;1.98;;;20.40;99.90;;;;;;5039575;28;20045;-77
2023/06/26 09:04:54;;;;;;;3.97;1.63;;;20.30;99.90;;;;;;5032595;28;20052;-77
2023/06/26 09:07:20;;;;;;;2.35;1.40;;;20.40;99.90;;;;;;5008396;28;20077;-76
2023/06/26 09:09:46;;;;;;;5.00;1.98;;;20.40;99.90;;;;;;5042794;28;20139;-77
2023/06/26 09:12:13;;;;;;;5.63;1.73;;;20.50;99.90;;;;;;5026485;28;20048;-76
2023/06/26 09:14:38;;;;;;;4.78;2.45;;;20.50;99.90;;;;;;5010883;28;20087;-76
2023/06/26 09:17:04;;;;;;;2.70;1.58;;;20.50;99.90;;;;;;5025117;28;20489;-76
2023/06/26 09:19:30;;;;;;;3.22;2.20;;;20.50;99.90;;;;;;5007632;28;20615;-77
2023/06/26 09:21:56;;;;;;;5.40;2.10;;;20.50;99.90;;;;;;5009666;28;20045;-77
2023/06/26 09:24:22;;;;;;;3.33;2.05;;;20.50;99.90;;;;;;5027171;28;20070;-77
2023/06/26 09:26:49;;;;;;;4.03;1.90;;;20.50;99.90;;;;;;5045471;28;20041;-77
2023/06/26 09:29:17;;;;;;;2.03;1.75;;;20.50;99.90;;;;;;5007295;28;20060;-77
2023/06/26 09:31:44;;;;;;;3.30;2.17;;;20.50;99.90;;;;;;5041438;28;20326;-76
2023/06/26 09:34:10;;;;;;;7.25;2.72;;;20.60;99.90;;;;;;5044053;28;20414;-76
2023/06/26 09:36:36;;;;;;;3.60;2.20;;;20.60;99.90;;;;;;5030470;28;20046;-77
2023/06/26 09:39:14;;;;;;;2.25;1.90;;;20.70;99.90;;;;;;5041546;28;20110;-77
2023/06/26 09:41:44;;;;;;;4.20;2.38;;;20.70;99.90;;;;;;5032400;28;20042;-77
2023/06/26 09:44:13;;;;;;;3.55;1.60;;;20.70;99.90;;;;;;5030898;28;20186;-75
2023/06/26 09:46:39;;;;;;;3.72;1.60;;;20.70;99.90;;;;;;5045264;28;20052;-82
2023/06/26 09:49:12;;;;;;;4.10;1.60;;;20.70;99.90;;;;;;5037313;28;20029;-80
2023/06/26 09:51:40;;;;;;;3.47;1.92;;;20.60;99.90;;;;;;5020529;28;20037;-77
2023/06/26 09:54:06;;;;;;;3.42;1.17;;;20.50;99.90;;;;;;5040596;28;20462;-76
2023/06/26 09:56:33;;;;;;;1.83;1.27;;;20.50;99.90;;;;;;5021727;28;20518;-74
2023/06/26 09:59:01;;;;;;;5.10;1.55;;;20.50;99.90;;;;;;5038522;28;20060;-74
2023/06/26 10:01:27;;;;;;;2.15;1.42;;;20.60;99.90;;;;;;5022704;28;20046;-75
2023/06/26 10:03:59;;;;;;;2.50;1.33;;;20.60;99.90;;;;;;5042453;28;20045;-74
2023/06/26 10:06:33;;;;;;;3.20;1.50;;;20.60;99.90;;;;;;5026056;28;20041;-75
2023/06/26 10:09:01;;;;;;;4.38;1.10;;;20.60;99.90;;;;;;5026151;28;20067;-74
2023/06/26 10:11:46;;;;;;;2.50;1.13;;;20.60;99.90;;;;;;5026707;28;20516;-74
2023/06/26 10:14:13;;;;;;;1.65;1.55;;;20.70;99.90;;;;;;5045161;28;20040;-74
2023/06/26 10:16:41;;;;;;;4.15;1.20;;;20.70;99.90;;;;;;5023516;28;20037;-74
2023/06/26 10:19:10;;;;;;;17.90;1.42;;;20.70;99.90;;;;;;5024006;28;20041;-75
2023/06/26 10:21:38;;;;;;;6.45;0.98;;;20.70;99.90;;;;;;5029380;28;20515;-74
2023/06/26 10:24:06;;;;;;;2.28;1.02;;;20.80;99.90;;;;;;5032414;28;20051;-74
2023/06/26 10:26:38;;;;;;;1.85;0.70;;;20.70;99.90;;;;;;5025971;28;20036;-74
2023/06/26 10:29:04;;;;;;;;;;;20.70;99.90;;;;;;5045434;28;20048;-74
2023/06/26 10:31:31;;;;;;;2.88;0.80;;;20.70;99.90;;;;;;5040436;28;19925;-76
2023/06/26 10:33:57;;;;;;;1.67;1.08;;;20.70;99.90;;;;;;5022070;28;20488;-74
2023/06/26 10:36:30;;;;;;;5.28;0.80;;;20.70;99.90;;;;;;5027152;28;20040;-75
2023/06/26 10:38:58;;;;;;;4.68;1.38;;;20.70;99.90;;;;;;5018796;28;20045;-74
2023/06/26 10:41:25;;;;;;;2.95;0.90;;;20.70;99.90;;;;;;5031104;28;20056;-75
2023/06/26 10:44:07;;;;;;;3.03;0.80;;;20.70;99.90;;;;;;5043871;28;20055;-75
2023/06/26 10:46:49;;;;;;;3.08;0.90;;;20.70;99.90;;;;;;5009352;28;20487;-74
2023/06/26 10:49:14;;;;;;;;;;;20.70;99.90;;;;;;5021781;28;20049;-75
2023/06/26 10:51:49;;;;;;;4.25;0.85;;;20.70;99.90;;;;;;5042409;28;19978;-76
2023/06/26 10:54:17;;;;;;;3.17;0.80;;;20.70;99.90;;;;;;5009574;28;20556;-74
2023/06/26 10:56:46;;;;;;;4.25;1.30;;;20.70;99.90;;;;;;5025161;28;20414;-75
2023/06/26 10:59:26;;;;;;;2.50;0.77;;;20.70;99.90;;;;;;5025422;28;20254;-75
2023/06/26 11:01:59;;;;;;;3.03;0.82;;;20.70;99.90;;;;;;5034236;28;20080;-75
2023/06/26 11:04:45;;;;;;;3.83;1.40;;;20.60;99.90;;;;;;5013837;28;20084;-75
2023/06/26 11:07:20;;;;;;;5.75;1.00;;;20.60;99.90;;;;;;5025277;28;20063;-75
2023/06/26 11:10:16;;;;;;;6.78;0.98;;;20.60;99.90;;;;;;5036749;28;20060;-74
2023/06/26 11:12:43;;;;;;;2.63;0.98;;;20.60;99.90;;;;;;5037654;28;20045;-75
2023/06/26 11:15:10;;;;;;;5.28;1.38;;;20.70;99.90;;;;;;5020164;28;20476;-75
2023/06/26 11:17:37;;;;;;;7.18;1.35;;;20.70;99.90;;;;;;5023011;28;20496;-76
2023/06/26 11:20:05;;;;;;;1.95;1.10;;;20.60;99.90;;;;;;5021421;28;20037;-76
2023/06/26 11:22:33;;;;;;;2.65;1.20;;;20.60;99.90;;;;;;5023127;28;20049;-76
2023/06/26 11:24:59;;;;;;;2.42;0.75;;;20.60;99.90;;;;;;5024254;28;20052;-76
2023/06/26 11:27:42;;;;;;;1.10;0.90;;;20.60;99.90;;;;;;5026057;28;20132;-75
2023/06/26 11:30:10;;;;;;;3.50;1.55;;;20.60;99.90;;;;;;5024890;28;20041;-75
2023/06/26 11:32:39;;;;;;;2.38;1.33;;;20.70;99.90;;;;;;5043002;28;20115;-75
2023/06/26 11:35:05;;;;;;;10.75;1.20;;;20.70;99.90;;;;;;5024540;28;20087;-76
2023/06/26 11:37:32;;;;;;;5.07;1.25;;;20.70;99.90;;;;;;5023311;28;20038;-76
2023/06/26 11:39:58;;;;;;;5.07;1.60;;;20.60;99.90;;;;;;5006639;28;20507;-75
2023/06/26 11:42:25;;;;;;;2.53;1.13;;;20.50;99.90;;;;;;5024098;28;20126;-75
2023/06/26 11:44:51;;;;;;;3.08;1.20;;;20.50;99.90;;;;;;5043315;28;20040;-75
2023/06/26 11:47:19;;;;;;;4.45;1.58;;;20.60;99.90;;;;;;5004234;28;20051;-75
2023/06/26 11:49:46;;;;;;;4.07;1.25;;;20.60;99.90;;;;;;5019870;28;20480;-74
2023/06/26 11:52:12;;;;;;;3.22;1.13;;;20.60;99.90;;;;;;5008050;28;20057;-74
2023/06/26 11:54:38;;;;;;;2.00;1.27;;;20.50;99.90;;;;;;5024918;28;20060;-75
2023/06/26 11:57:04;;;;;;;6.65;1.13;;;20.50;99.90;;;;;;5041859;28;20045;-75
2023/06/26 11:59:39;;;;;;;4.28;1.25;;;20.60;99.90;;;;;;5041247;28;20040;-75
2023/06/26 12:02:13;;;;;;;3.55;1.90;;;20.60;99.90;;;;;;5013468;28;20476;-75
2023/06/26 12:04:41;;;;;;;2.78;1.02;;;20.60;99.90;;;;;;5021594;28;20042;-74
2023/06/26 12:07:09;;;;;;;3.00;0.98;;;20.60;99.90;;;;;;5021559;28;20042;-75
2023/06/26 12:09:46;;;;;;;2.40;1.10;;;20.60;99.90;;;;;;5004344;28;20254;-74
2023/06/26 12:12:14;;;;;;;2.88;1.17;;;20.70;99.90;;;;;;5004105;28;20056;-74
2023/06/26 12:14:40;;;;;;;7.55;1.75;;;20.60;99.90;;;;;;5004722;28;20042;-75
2023/06/26 12:17:13;;;;;;;2.30;1.00;;;20.50;99.90;;;;;;5022065;28;20058;-74
2023/06/26 12:19:49;;;;;;;1.77;1.10;;;20.50;99.90;;;;;;5003968;28;20116;-74
2023/06/26 12:22:19;;;;;;;3.40;1.13;;;20.60;99.90;;;;;;5021653;28;20096;-75
2023/06/26 12:24:46;;;;;;;2.15;1.10;;;20.60;99.90;;;;;;5004337;28;20179;-74
2023/06/26 12:27:14;;;;;;;2.65;1.20;;;20.70;99.90;;;;;;5004068;28;20048;-75
2023/06/26 12:29:46;;;;;;;2.78;1.00;;;20.70;99.90;;;;;;5022423;28;20110;-75
2023/06/26 12:32:14;;;;;;;2.80;1.40;;;20.70;99.90;;;;;;5004875;28;20088;-75
2023/06/26 12:34:40;;;;;;;2.47;1.00;;;20.70;99.90;;;;;;5007258;28;20052;-75
2023/06/26 12:37:08;;;;;;;3.42;1.02;;;20.60;99.90;;;;;;5025812;28;20053;-75
2023/06/26 12:39:56;;;;;;;3.17;1.30;;;20.50;99.90;;;;;;5025648;28;20134;-74
2023/06/26 12:42:23;;;;;;;2.78;1.00;;;20.40;99.90;;;;;;5025323;28;20124;-74
2023/06/26 12:44:49;;;;;;;3.67;1.35;;;20.40;99.90;;;;;;5007905;28;20037;-74